createdAt,value
2024-01-31T00:00:21.429Z,96834.00
2024-01-31T00:01:21.552Z,96832.00
2024-01-31T00:02:21.518Z,96833.00
2024-01-31T00:03:21.578Z,96835.00
2024-01-31T00:04:21.690Z,96835.00
2024-01-31T00:05:21.776Z,96833.00
2024-01-31T00:06:21.789Z,96834.00
2024-01-31T00:55:42.121Z,96850.00
2024-01-31T00:56:22.064Z,96850.00
2024-01-31T00:57:22.054Z,96848.00
2024-01-31T00:58:22.085Z,96850.00
2024-01-31T00:59:22.056Z,96849.00
2024-01-31T01:00:22.068Z,96851.00
2024-01-31T01:01:22.143Z,96854.00
2024-01-31T01:02:22.070Z,96855.00
2024-01-31T01:03:22.158Z,96857.00
2024-01-31T01:04:22.169Z,96860.00
2024-01-31T01:05:22.069Z,96860.00
2024-01-31T01:06:22.141Z,96860.00
2024-01-31T01:07:22.102Z,96860.00
2024-01-31T01:08:22.081Z,96860.00
2024-01-31T01:09:22.107Z,96859.00
2024-01-31T01:10:22.161Z,96859.00
2024-01-31T01:11:22.108Z,96857.00
2024-01-31T01:12:22.084Z,96857.00
2024-01-31T01:13:22.109Z,96855.00
2024-01-31T01:14:22.085Z,96851.00
2024-01-31T01:15:22.089Z,96846.00
2024-01-31T01:16:22.111Z,96848.00
2024-01-31T01:17:22.084Z,96847.00
2024-01-31T01:18:22.090Z,96848.00
2024-01-31T01:19:22.222Z,96853.00
2024-01-31T01:20:22.155Z,96849.00
2024-01-31T01:21:22.131Z,96852.00
2024-01-31T01:22:22.128Z,96853.00
2024-01-31T01:23:22.110Z,96854.00
2024-01-31T01:24:22.114Z,96856.00
2024-01-31T01:25:22.131Z,96854.00
2024-01-31T01:26:22.108Z,96853.00
2024-01-31T01:27:22.131Z,96852.00
2024-01-31T01:28:22.124Z,96852.00
2024-01-31T01:29:22.113Z,96854.00
2024-01-31T01:30:22.127Z,96851.00
2024-01-31T01:31:22.222Z,96849.00
2024-01-31T01:32:22.133Z,96849.00
2024-01-31T01:33:22.192Z,96848.00
2024-01-31T01:34:22.202Z,96848.00
2024-01-31T01:35:22.179Z,96845.00
2024-01-31T01:36:22.227Z,96843.00
2024-01-31T01:37:22.326Z,96840.00
2024-01-31T01:38:22.327Z,96841.00
2024-01-31T01:39:22.377Z,96838.00
2024-01-31T01:40:22.466Z,96837.00
2024-01-31T01:41:22.483Z,96837.00
2024-01-31T01:42:22.548Z,96835.00
2024-01-31T01:43:22.663Z,96835.00
2024-01-31T01:44:22.642Z,96833.00
2024-01-31T01:45:22.682Z,96833.00
2024-01-31T01:46:22.841Z,96837.00
2024-01-31T01:47:22.819Z,96837.00
2024-01-31T01:48:22.969Z,96840.00
2024-01-31T01:49:22.928Z,96840.00
2024-01-31T01:50:22.954Z,96839.00
2024-01-31T01:51:23.004Z,96837.00
2024-01-31T01:52:23.151Z,96837.00
2024-01-31T01:53:23.121Z,96839.00
2024-01-31T01:54:23.175Z,96840.00
2024-01-31T01:55:23.324Z,96838.00
2024-01-31T01:56:23.247Z,96839.00
2024-01-31T01:57:23.297Z,96836.00
2024-01-31T01:58:23.387Z,96838.00
2024-01-31T01:59:23.436Z,96837.00
2024-01-31T02:00:23.465Z,96837.00
2024-01-31T02:01:23.703Z,96838.00
2024-01-31T02:02:23.586Z,96838.00
2024-01-31T02:03:23.631Z,96837.00
2024-01-31T02:04:23.797Z,96836.00
2024-01-31T02:05:23.782Z,96832.00
2024-01-31T02:06:23.890Z,96831.00
2024-01-31T02:07:23.911Z,96830.00
2024-01-31T02:08:23.901Z,96830.00
2024-01-31T02:09:23.983Z,96830.00
2024-01-31T02:10:24.065Z,96832.00
2024-01-31T02:11:24.056Z,96833.00
2024-01-31T02:12:24.087Z,96831.00
2024-01-31T02:13:24.166Z,96835.00
2024-01-31T02:14:24.153Z,96832.00
2024-01-31T02:15:24.212Z,96832.00
2024-01-31T02:16:24.243Z,96833.00
2024-01-31T02:17:24.286Z,96832.00
2024-01-31T02:18:24.373Z,96836.00
2024-01-31T02:19:24.431Z,96834.00
2024-01-31T02:20:24.416Z,96835.00
2024-01-31T02:21:24.476Z,96839.00
2024-01-31T02:22:24.557Z,96840.00
2024-01-31T02:23:24.600Z,96843.00
2024-01-31T02:24:24.629Z,96843.00
2024-01-31T02:25:24.762Z,96839.00
2024-01-31T02:26:24.731Z,96838.00
2024-01-31T02:27:24.777Z,96838.00
2024-01-31T02:28:24.859Z,96836.00
2024-01-31T02:29:24.878Z,96832.00
2024-01-31T02:30:24.930Z,96833.00
2024-01-31T02:31:25.055Z,96831.00
2024-01-31T02:32:25.038Z,96832.00
2024-01-31T02:33:25.102Z,96831.00
2024-01-31T02:34:25.229Z,96827.00
2024-01-31T02:35:25.200Z,96825.00
2024-01-31T02:36:25.245Z,96821.00
2024-01-31T02:37:25.334Z,96820.00
2024-01-31T02:38:25.370Z,96818.00
2024-01-31T02:39:25.422Z,96818.00
2024-01-31T02:40:25.532Z,96818.00
2024-01-31T02:41:25.533Z,96819.00
2024-01-31T02:42:25.573Z,96819.00
2024-01-31T02:43:25.676Z,96819.00
2024-01-31T02:44:25.671Z,96819.00
2024-01-31T02:45:25.725Z,96817.00
2024-01-31T02:46:25.811Z,96821.00
2024-01-31T02:47:25.826Z,96821.00
2024-01-31T02:48:25.973Z,96820.00
2024-01-31T02:49:25.974Z,96820.00
2024-01-31T02:50:25.928Z,96820.00
2024-01-31T02:51:25.982Z,96819.00
2024-01-31T02:52:26.042Z,96817.00
2024-01-31T02:53:26.099Z,96816.00
2024-01-31T02:54:26.170Z,96817.00
2024-01-31T02:55:26.215Z,96815.00
2024-01-31T02:56:26.244Z,96813.00
2024-01-31T02:57:26.315Z,96812.00
2024-01-31T02:58:26.388Z,96808.00
2024-01-31T02:59:26.392Z,96809.00
2024-01-31T03:00:26.447Z,96806.00
2024-01-31T03:01:26.599Z,96806.00
2024-01-31T03:02:26.557Z,96804.00
2024-01-31T03:03:26.638Z,96804.00
2024-01-31T03:04:26.839Z,96802.00
2024-01-31T03:05:26.790Z,96802.00
2024-01-31T03:06:26.811Z,96802.00
2024-01-31T03:07:26.833Z,96803.00
2024-01-31T03:08:26.876Z,96802.00
2024-01-31T03:09:26.923Z,96801.00
2024-01-31T03:10:27.016Z,96802.00
2024-01-31T03:11:27.028Z,96800.00
2024-01-31T03:12:27.082Z,96799.00
2024-01-31T03:13:27.203Z,96799.00
2024-01-31T03:14:27.182Z,96800.00
2024-01-31T03:15:27.273Z,96801.00
2024-01-31T03:16:27.315Z,96802.00
2024-01-31T03:17:27.349Z,96803.00
2024-01-31T03:18:27.401Z,96804.00
2024-01-31T03:19:27.523Z,96803.00
2024-01-31T03:20:27.505Z,96802.00
2024-01-31T03:21:27.562Z,96803.00
2024-01-31T03:22:27.679Z,96802.00
2024-01-31T03:23:27.643Z,96802.00
2024-01-31T03:24:27.676Z,96802.00
2024-01-31T03:25:27.743Z,96801.00
2024-01-31T03:26:27.769Z,96799.00
2024-01-31T03:27:27.873Z,96798.00
2024-01-31T03:28:27.918Z,96798.00
2024-01-31T03:29:27.943Z,96798.00
2024-01-31T03:30:28.005Z,96794.00
2024-01-31T03:31:28.079Z,96794.00
2024-01-31T03:32:28.141Z,96795.00
2024-01-31T03:33:28.210Z,96790.00
2024-01-31T03:34:28.254Z,96791.00
2024-01-31T03:35:28.306Z,96789.00
2024-01-31T03:36:28.329Z,96787.00
2024-01-31T03:37:28.503Z,96787.00
2024-01-31T03:38:28.439Z,96785.00
2024-01-31T03:39:28.496Z,96786.00
2024-01-31T03:40:28.561Z,96785.00
2024-01-31T03:41:28.580Z,96785.00
2024-01-31T03:42:28.633Z,96785.00
2024-01-31T03:43:28.701Z,96788.00
2024-01-31T03:44:28.751Z,96788.00
2024-01-31T03:45:28.832Z,96788.00
2024-01-31T03:46:28.926Z,96789.00
2024-01-31T03:47:28.952Z,96792.00
2024-01-31T03:48:28.967Z,96793.00
2024-01-31T03:49:28.989Z,96794.00
2024-01-31T03:50:29.012Z,96795.00
2024-01-31T03:51:29.118Z,96796.00
2024-01-31T03:52:29.122Z,96795.00
2024-01-31T03:53:29.180Z,96797.00
2024-01-31T03:54:29.237Z,96798.00
2024-01-31T03:55:29.281Z,96800.00
2024-01-31T03:56:29.315Z,96798.00
2024-01-31T03:57:29.366Z,96799.00
2024-01-31T03:58:29.475Z,96800.00
2024-01-31T03:59:29.500Z,96799.00
2024-01-31T04:00:29.548Z,96800.00
2024-01-31T04:01:29.683Z,96802.00
2024-01-31T04:02:29.647Z,96803.00
2024-01-31T04:03:29.726Z,96804.00
2024-01-31T04:04:29.818Z,96809.00
2024-01-31T04:05:30.151Z,96809.00
2024-01-31T04:06:29.969Z,96811.00
2024-01-31T04:07:30.021Z,96810.00
2024-01-31T04:08:30.007Z,96810.00
2024-01-31T04:09:30.052Z,96812.00
2024-01-31T04:10:30.086Z,96812.00
2024-01-31T04:11:30.107Z,96814.00
2024-01-31T04:12:30.173Z,96813.00
2024-01-31T04:13:30.251Z,96813.00
2024-01-31T04:14:30.267Z,96815.00
2024-01-31T04:15:30.315Z,96813.00
2024-01-31T04:16:30.375Z,96813.00
2024-01-31T04:17:30.434Z,96813.00
2024-01-31T04:18:30.578Z,96813.00
2024-01-31T04:19:30.596Z,96814.00
2024-01-31T04:20:30.642Z,96814.00
2024-01-31T04:21:30.678Z,96814.00
2024-01-31T04:22:30.756Z,96813.00
2024-01-31T04:23:30.939Z,96812.00
2024-01-31T04:24:30.874Z,96811.00
2024-01-31T04:25:30.941Z,96810.00
2024-01-31T04:26:30.908Z,96808.00
2024-01-31T04:27:31.023Z,96807.00
2024-01-31T04:28:31.091Z,96808.00
2024-01-31T04:29:31.145Z,96804.00
2024-01-31T04:30:33.105Z,96806.00
2024-01-31T04:31:31.149Z,96808.00
2024-01-31T04:32:31.188Z,96808.00
2024-01-31T04:33:31.283Z,96809.00
2024-01-31T04:34:31.336Z,96810.00
2024-01-31T04:35:31.160Z,96811.00
2024-01-31T04:36:31.143Z,96808.00
2024-01-31T04:37:31.217Z,96808.00
2024-01-31T04:38:31.151Z,96811.00
2024-01-31T04:39:31.247Z,96807.00
2024-01-31T04:40:31.165Z,96808.00
2024-01-31T04:41:31.149Z,96809.00
2024-01-31T04:42:31.168Z,96811.00
2024-01-31T04:43:31.249Z,96811.00
2024-01-31T04:44:31.162Z,96811.00
2024-01-31T04:45:31.199Z,96812.00
2024-01-31T04:46:31.216Z,96810.00
2024-01-31T04:47:38.454Z,96809.00
2024-01-31T04:48:39.604Z,96808.00
2024-01-31T04:49:39.537Z,96809.00
2024-01-31T04:50:39.473Z,96809.00
2024-01-31T04:51:39.450Z,96808.00
2024-01-31T04:52:39.557Z,96807.00
2024-01-31T04:53:39.449Z,96806.00
2024-01-31T04:54:39.485Z,96805.00
2024-01-31T04:55:39.500Z,96808.00
2024-01-31T04:56:39.456Z,96807.00
2024-01-31T04:57:39.474Z,96807.00
2024-01-31T04:58:39.544Z,96808.00
2024-01-31T04:59:39.461Z,96811.00
2024-01-31T05:00:39.461Z,96810.00
2024-01-31T05:01:39.547Z,96811.00
2024-01-31T05:02:39.481Z,96811.00
2024-01-31T05:03:39.503Z,96814.00
2024-01-31T05:04:39.548Z,96813.00
2024-01-31T05:05:39.562Z,96815.00
2024-01-31T05:06:39.478Z,96815.00
2024-01-31T05:07:39.501Z,96817.00
2024-01-31T05:08:39.478Z,96818.00
2024-01-31T05:09:39.483Z,96817.00
2024-01-31T05:10:39.537Z,96816.00
2024-01-31T05:11:39.478Z,96819.00
2024-01-31T05:12:39.490Z,96817.00
2024-01-31T05:13:39.551Z,96816.00
2024-01-31T05:14:39.488Z,96815.00
2024-01-31T05:15:39.493Z,96816.00
2024-01-31T05:16:39.585Z,96815.00
2024-01-31T05:17:39.510Z,96817.00
2024-01-31T05:18:39.544Z,96819.00
2024-01-31T05:19:39.596Z,96819.00
2024-01-31T05:20:39.514Z,96822.00
2024-01-31T05:21:39.514Z,96823.00
2024-01-31T05:22:39.613Z,96823.00
2024-01-31T05:23:39.599Z,96822.00
2024-01-31T05:24:39.643Z,96822.00
2024-01-31T05:25:39.762Z,96823.00
2024-01-31T05:26:39.758Z,96824.00
2024-01-31T05:27:39.783Z,96824.00
2024-01-31T05:28:39.953Z,96826.00
2024-01-31T05:29:39.883Z,96826.00
2024-01-31T05:30:39.894Z,96822.00
2024-01-31T05:31:39.968Z,96822.00
2024-01-31T05:32:40.006Z,96821.00
2024-01-31T05:33:40.044Z,96823.00
2024-01-31T05:34:40.083Z,96820.00
2024-01-31T05:35:40.090Z,96820.00
2024-01-31T05:36:40.147Z,96820.00
2024-01-31T05:37:40.787Z,96821.00
2024-01-31T05:38:40.222Z,96822.00
2024-01-31T05:39:40.262Z,96821.00
2024-01-31T05:40:40.436Z,96821.00
2024-01-31T05:41:40.344Z,96822.00
2024-01-31T05:42:40.428Z,96823.00
2024-01-31T05:43:40.505Z,96827.00
2024-01-31T05:44:40.483Z,96831.00
2024-01-31T05:45:40.517Z,96833.00
2024-01-31T05:46:40.712Z,96833.00
2024-01-31T05:47:40.631Z,96835.00
2024-01-31T05:48:40.663Z,96836.00
2024-01-31T05:49:40.774Z,96833.00
2024-01-31T05:50:42.072Z,96833.00
2024-01-31T05:51:40.767Z,96832.00
2024-01-31T05:52:40.893Z,96832.00
2024-01-31T05:53:40.846Z,96833.00
2024-01-31T05:54:40.895Z,96835.00
2024-01-31T05:55:40.979Z,96834.00
2024-01-31T05:56:40.956Z,96835.00
2024-01-31T05:57:40.988Z,96834.00
2024-01-31T05:58:41.127Z,96836.00
2024-01-31T05:59:41.068Z,96835.00
2024-01-31T06:00:41.133Z,96835.00
2024-01-31T06:01:41.256Z,96837.00
2024-01-31T06:02:41.205Z,96838.00
2024-01-31T06:03:41.277Z,96841.00
2024-01-31T06:04:41.458Z,96847.00
2024-01-31T06:05:41.338Z,96842.00
2024-01-31T06:06:41.342Z,96844.00
2024-01-31T06:07:41.502Z,96846.00
2024-01-31T06:08:41.440Z,96847.00
2024-01-31T06:09:41.465Z,96848.00
2024-01-31T06:10:41.557Z,96848.00
2024-01-31T06:11:41.538Z,96850.00
2024-01-31T06:12:41.567Z,96847.00
2024-01-31T06:13:42.223Z,96848.00
2024-01-31T06:14:41.681Z,96848.00
2024-01-31T06:15:41.678Z,96852.00
2024-01-31T06:16:41.738Z,96853.00
2024-01-31T06:17:41.753Z,96858.00
2024-01-31T06:18:42.108Z,96860.00
2024-01-31T06:19:41.902Z,96862.00
2024-01-31T06:20:41.970Z,96863.00
2024-01-31T06:21:41.866Z,96864.00
2024-01-31T06:22:41.940Z,96862.00
2024-01-31T06:23:42.013Z,96864.00
2024-01-31T06:24:42.142Z,96864.00
2024-01-31T06:25:42.030Z,96862.00
2024-01-31T06:26:42.045Z,96863.00
2024-01-31T06:27:42.075Z,96861.00
2024-01-31T06:28:42.195Z,96863.00
2024-01-31T06:29:42.646Z,96865.00
2024-01-31T06:30:42.269Z,96861.00
2024-01-31T06:31:42.303Z,96860.00
2024-01-31T06:32:42.319Z,96860.00
2024-01-31T06:33:42.355Z,96858.00
2024-01-31T06:34:42.337Z,96857.00
2024-01-31T06:35:42.293Z,96860.00
2024-01-31T06:36:42.334Z,96858.00
2024-01-31T06:37:42.408Z,96856.00
2024-01-31T06:38:42.621Z,96855.00
2024-01-31T06:39:42.403Z,96860.00
2024-01-31T06:40:42.501Z,96856.00
2024-01-31T06:41:42.464Z,96857.00
2024-01-31T06:42:42.488Z,96859.00
2024-01-31T06:43:42.734Z,96862.00
2024-01-31T06:44:42.557Z,96865.00
2024-01-31T06:45:42.579Z,96868.00
2024-01-31T06:46:42.656Z,96866.00
2024-01-31T06:47:42.657Z,96864.00
2024-01-31T06:48:43.207Z,96868.00
2024-01-31T06:49:43.266Z,96868.00
2024-01-31T06:50:43.673Z,96867.00
2024-01-31T06:51:42.723Z,96868.00
2024-01-31T06:52:42.778Z,96870.00
2024-01-31T06:53:43.125Z,96873.00
2024-01-31T06:54:42.846Z,96874.00
2024-01-31T06:55:44.619Z,96874.00
2024-01-31T06:56:42.718Z,96874.00
2024-01-31T06:57:43.876Z,96870.00
2024-01-31T06:58:42.866Z,96872.00
2024-01-31T06:59:50.558Z,96867.00
2024-01-31T07:00:42.799Z,96865.00
2024-01-31T07:01:42.895Z,96866.00
2024-01-31T07:02:42.773Z,96868.00
2024-01-31T07:03:43.141Z,96870.00
2024-01-31T07:04:44.827Z,96873.00
2024-01-31T07:05:42.819Z,96878.00
2024-01-31T07:06:42.790Z,96871.00
2024-01-31T07:07:46.123Z,96869.00
2024-01-31T07:08:43.175Z,96869.00
2024-01-31T07:09:42.990Z,96867.00
2024-01-31T07:10:42.844Z,96866.00
2024-01-31T07:11:42.770Z,96868.00
2024-01-31T07:12:43.743Z,96869.00
2024-01-31T07:13:43.256Z,96871.00
2024-01-31T07:14:42.748Z,96869.00
2024-01-31T07:15:42.756Z,96868.00
2024-01-31T07:16:42.990Z,96868.00
2024-01-31T07:17:43.062Z,96871.00
2024-01-31T07:18:43.856Z,96877.00
2024-01-31T07:19:43.649Z,96880.00
2024-01-31T07:20:42.796Z,96883.00
2024-01-31T07:21:42.758Z,96883.00
2024-01-31T07:22:42.949Z,96884.00
2024-01-31T07:23:44.216Z,96883.00
2024-01-31T07:24:42.903Z,96882.00
2024-01-31T07:25:43.042Z,96885.00
2024-01-31T07:26:44.972Z,96884.00
2024-01-31T07:27:42.983Z,96885.00
2024-01-31T07:28:43.387Z,96886.00
2024-01-31T07:29:43.411Z,96883.00
2024-01-31T07:30:43.087Z,96883.00
2024-01-31T07:31:43.408Z,96880.00
2024-01-31T07:32:43.186Z,96879.00
2024-01-31T07:33:43.146Z,96878.00
2024-01-31T07:34:43.772Z,96877.00
2024-01-31T07:35:43.391Z,96874.00
2024-01-31T07:36:43.002Z,96877.00
2024-01-31T07:37:44.985Z,96876.00
2024-01-31T07:38:43.003Z,96877.00
2024-01-31T07:39:43.220Z,96880.00
2024-01-31T07:40:43.094Z,96880.00
2024-01-31T07:41:43.006Z,96880.00
2024-01-31T07:42:43.611Z,96879.00
2024-01-31T07:43:44.763Z,96879.00
2024-01-31T07:44:43.007Z,96881.00
2024-01-31T07:45:43.102Z,96879.00
2024-01-31T07:46:43.136Z,96880.00
2024-01-31T07:47:43.033Z,96879.00
2024-01-31T07:48:43.084Z,96880.00
2024-01-31T07:49:51.089Z,96879.00
2024-01-31T07:50:44.149Z,96879.00
2024-01-31T07:51:43.333Z,96880.00
2024-01-31T07:52:43.557Z,96879.00
2024-01-31T07:53:43.639Z,96881.00
2024-01-31T07:54:43.518Z,96882.00
2024-01-31T07:55:43.827Z,96881.00
2024-01-31T07:56:43.419Z,96880.00
2024-01-31T07:57:43.398Z,96881.00
2024-01-31T07:58:43.344Z,96883.00
2024-01-31T07:59:43.496Z,96882.00
2024-01-31T08:00:43.570Z,96882.00
2024-01-31T08:01:43.811Z,96883.00
2024-01-31T08:02:43.893Z,96886.00
2024-01-31T08:03:43.881Z,96887.00
2024-01-31T08:04:43.842Z,96888.00
2024-01-31T08:05:43.909Z,96888.00
2024-01-31T08:06:43.881Z,96892.00
2024-01-31T08:07:43.895Z,96890.00
2024-01-31T08:08:43.858Z,96892.00
2024-01-31T08:09:43.761Z,96892.00
2024-01-31T08:10:44.002Z,96888.00
2024-01-31T08:11:44.296Z,96889.00
2024-01-31T08:12:44.531Z,96889.00
2024-01-31T08:13:44.262Z,96887.00
2024-01-31T08:14:44.306Z,96886.00
2024-01-31T08:15:43.965Z,96887.00
2024-01-31T08:16:44.058Z,96887.00
2024-01-31T08:17:44.788Z,96887.00
2024-01-31T08:18:44.597Z,96891.00
2024-01-31T08:19:44.315Z,96893.00
2024-01-31T08:20:44.881Z,96894.00
2024-01-31T08:21:44.474Z,96894.00
2024-01-31T08:22:44.816Z,96894.00
2024-01-31T08:23:45.223Z,96892.00
2024-01-31T08:24:44.954Z,96892.00
2024-01-31T08:25:45.213Z,96892.00
2024-01-31T08:26:44.934Z,96892.00
2024-01-31T08:27:45.149Z,96892.00
2024-01-31T08:28:45.008Z,96891.00
2024-01-31T08:29:45.036Z,96891.00
2024-01-31T08:30:44.948Z,96891.00
2024-01-31T08:31:45.037Z,96890.00
2024-01-31T08:32:44.983Z,96888.00
2024-01-31T08:33:46.183Z,96886.00
2024-01-31T08:34:44.936Z,96885.00
2024-01-31T08:35:45.338Z,96883.00
2024-01-31T08:36:45.181Z,96888.00
2024-01-31T08:37:45.413Z,96887.00
2024-01-31T08:38:45.566Z,96887.00
2024-01-31T08:39:45.018Z,96884.00
2024-01-31T08:40:46.323Z,96882.00
2024-01-31T08:41:44.999Z,96879.00
2024-01-31T08:42:45.049Z,96875.00
2024-01-31T08:43:45.610Z,96875.00
2024-01-31T08:44:45.314Z,96873.00
2024-01-31T08:45:45.217Z,96870.00
2024-01-31T08:47:44.302Z,96869.00
2024-01-31T08:48:45.522Z,96871.00
2024-01-31T08:49:45.235Z,96872.00
2024-01-31T08:50:45.263Z,96869.00
2024-01-31T08:51:45.193Z,96870.00
2024-01-31T08:52:45.350Z,96872.00
2024-01-31T08:53:45.188Z,96870.00
2024-01-31T08:54:45.343Z,96872.00
2024-01-31T08:55:55.270Z,96873.00
2024-01-31T08:56:45.270Z,96876.00
2024-01-31T08:57:46.605Z,96878.00
2024-01-31T08:58:46.538Z,96876.00
2024-01-31T08:59:45.204Z,96877.00
2024-01-31T09:00:45.723Z,96879.00
2024-01-31T09:01:45.453Z,96875.00
2024-01-31T09:02:45.336Z,96877.00
2024-01-31T09:03:45.837Z,96878.00
2024-01-31T09:04:45.906Z,96881.00
2024-01-31T09:05:46.497Z,96879.00
2024-01-31T09:06:45.357Z,96878.00
2024-01-31T09:07:45.363Z,96880.00
2024-01-31T09:08:45.687Z,96879.00
2024-01-31T09:09:45.339Z,96880.00
2024-01-31T09:10:45.737Z,96883.00
2024-01-31T09:11:46.392Z,96881.00
2024-01-31T09:12:45.378Z,96875.00
2024-01-31T09:13:45.457Z,96877.00
2024-01-31T09:14:45.413Z,96878.00
2024-01-31T09:15:45.687Z,96876.00
2024-01-31T09:16:45.523Z,96879.00
2024-01-31T09:17:45.506Z,96879.00
2024-01-31T09:18:45.984Z,96878.00
2024-01-31T09:19:47.668Z,96876.00
2024-01-31T09:20:45.556Z,96878.00
2024-01-31T09:21:45.538Z,96878.00
2024-01-31T09:22:45.680Z,96880.00
2024-01-31T09:23:45.546Z,96881.00
2024-01-31T09:24:45.546Z,96879.00
2024-01-31T09:25:45.668Z,96878.00
2024-01-31T09:26:45.550Z,96878.00
2024-01-31T09:27:45.551Z,96878.00
2024-01-31T09:28:45.786Z,96875.00
2024-01-31T09:29:45.555Z,96879.00
2024-01-31T09:30:46.240Z,96875.00
2024-01-31T09:31:46.720Z,96873.00
2024-01-31T09:32:45.618Z,96871.00
2024-01-31T09:33:45.629Z,96867.00
2024-01-31T09:34:45.838Z,96869.00
2024-01-31T09:35:45.652Z,96864.00
2024-01-31T09:36:45.794Z,96863.00
2024-01-31T09:37:45.655Z,96861.00
2024-01-31T09:38:45.773Z,96858.00
2024-01-31T09:39:45.706Z,96858.00
2024-01-31T09:40:45.714Z,96855.00
2024-01-31T09:41:46.271Z,96856.00
2024-01-31T09:42:45.828Z,96857.00
2024-01-31T09:43:46.356Z,96853.00
2024-01-31T09:44:46.926Z,96855.00
2024-01-31T09:45:45.900Z,96860.00
2024-01-31T09:46:46.039Z,96856.00
2024-01-31T09:47:46.274Z,96854.00
2024-01-31T09:48:46.168Z,96856.00
2024-01-31T09:49:46.100Z,96853.00
2024-01-31T09:50:46.324Z,96855.00
2024-01-31T09:51:46.138Z,96851.00
2024-01-31T09:52:47.273Z,96848.00
2024-01-31T09:53:46.270Z,96851.00
2024-01-31T09:54:46.354Z,96850.00
2024-01-31T09:55:46.431Z,96850.00
2024-01-31T09:56:46.482Z,96853.00
2024-01-31T09:57:46.567Z,96854.00
2024-01-31T09:58:46.757Z,96852.00
2024-01-31T09:59:46.672Z,96851.00
2024-01-31T10:00:48.180Z,96853.00
2024-01-31T10:01:46.810Z,96853.00
2024-01-31T10:02:46.779Z,96852.00
2024-01-31T10:03:47.274Z,96854.00
2024-01-31T10:04:47.252Z,96851.00
2024-01-31T10:05:46.761Z,96853.00
2024-01-31T10:06:46.886Z,96851.00
2024-01-31T10:07:46.773Z,96847.00
2024-01-31T10:08:46.750Z,96850.00
2024-01-31T10:09:46.976Z,96849.00
2024-01-31T10:10:46.811Z,96850.00
2024-01-31T10:11:46.774Z,96848.00
2024-01-31T10:12:46.768Z,96847.00
2024-01-31T10:13:48.410Z,96843.00
2024-01-31T10:14:46.766Z,96840.00
2024-01-31T10:15:46.781Z,96841.00
2024-01-31T10:16:46.832Z,96838.00
2024-01-31T10:17:47.264Z,96835.00
2024-01-31T10:18:46.858Z,96830.00
2024-01-31T10:19:47.334Z,96829.00
2024-01-31T10:20:46.782Z,96825.00
2024-01-31T10:21:46.786Z,96824.00
2024-01-31T10:22:46.844Z,96816.00
2024-01-31T10:23:47.246Z,96818.00
2024-01-31T10:24:46.830Z,96819.00
2024-01-31T10:25:54.563Z,96820.00
2024-01-31T10:26:46.928Z,96823.00
2024-01-31T10:27:46.795Z,96823.00
2024-01-31T10:28:51.200Z,96825.00
2024-01-31T10:29:46.961Z,96826.00
2024-01-31T10:30:46.830Z,96819.00
2024-01-31T10:31:46.837Z,96817.00
2024-01-31T10:32:48.003Z,96816.00
2024-01-31T10:33:47.284Z,96813.00
2024-01-31T10:35:01.164Z,96810.00
2024-01-31T10:36:24.272Z,96809.00
2024-01-31T10:37:28.004Z,96809.00
2024-01-31T10:37:55.940Z,96806.00
2024-01-31T10:38:47.142Z,96806.00
2024-01-31T10:39:47.351Z,96804.00
2024-01-31T10:40:47.437Z,96804.00
2024-01-31T10:41:46.855Z,96805.00
2024-01-31T10:42:46.861Z,96808.00
2024-01-31T10:43:46.856Z,96804.00
2024-01-31T10:44:46.905Z,96803.00
2024-01-31T10:45:47.353Z,96808.00
2024-01-31T10:46:46.960Z,96806.00
2024-01-31T10:47:46.996Z,96807.00
2024-01-31T10:48:47.449Z,96808.00
2024-01-31T10:49:48.329Z,96806.00
2024-01-31T10:50:47.023Z,96807.00
2024-01-31T10:51:47.011Z,96804.00
2024-01-31T10:52:54.462Z,96798.00
2024-01-31T10:53:47.316Z,96798.00
2024-01-31T10:54:47.357Z,96799.00
2024-01-31T10:55:47.109Z,96799.00
2024-01-31T10:56:47.135Z,96796.00
2024-01-31T10:57:47.057Z,96794.00
2024-01-31T10:58:47.317Z,96792.00
2024-01-31T10:59:47.154Z,96790.00
2024-01-31T11:00:47.192Z,96789.00
2024-01-31T11:01:47.097Z,96785.00
2024-01-31T11:02:47.110Z,96783.00
2024-01-31T11:03:47.265Z,96783.00
2024-01-31T11:04:47.079Z,96782.00
2024-01-31T11:05:47.270Z,96779.00
2024-01-31T11:06:47.157Z,96778.00
2024-01-31T11:07:47.302Z,96778.00
2024-01-31T11:08:47.304Z,96776.00
2024-01-31T11:09:47.231Z,96775.00
2024-01-31T11:10:47.134Z,96772.00
2024-01-31T11:11:47.144Z,96770.00
2024-01-31T11:12:47.088Z,96769.00
2024-01-31T11:13:47.233Z,96767.00
2024-01-31T11:14:47.307Z,96769.00
2024-01-31T11:15:47.101Z,96767.00
2024-01-31T11:16:47.087Z,96766.00
2024-01-31T11:17:47.194Z,96765.00
2024-01-31T11:18:48.294Z,96765.00
2024-01-31T11:19:47.154Z,96764.00
2024-01-31T11:20:47.141Z,96761.00
2024-01-31T11:21:47.110Z,96760.00
2024-01-31T11:22:47.232Z,96756.00
2024-01-31T11:23:48.298Z,96755.00
2024-01-31T11:24:47.778Z,96750.00
2024-01-31T11:25:47.133Z,96748.00
2024-01-31T11:26:47.165Z,96741.00
2024-01-31T11:27:47.130Z,96739.00
2024-01-31T11:28:47.115Z,96735.00
2024-01-31T11:29:47.236Z,96733.00
2024-01-31T11:30:47.249Z,96732.00
2024-01-31T11:31:47.233Z,96728.00
2024-01-31T11:32:47.420Z,96723.00
2024-01-31T11:33:47.890Z,96722.00
2024-01-31T11:34:47.464Z,96719.00
2024-01-31T11:35:47.747Z,96716.00
2024-01-31T11:36:47.527Z,96716.00
2024-01-31T11:37:47.754Z,96718.00
2024-01-31T11:38:48.481Z,96713.00
2024-01-31T11:39:47.759Z,96709.00
2024-01-31T11:40:47.681Z,96708.00
2024-01-31T11:41:47.810Z,96706.00
2024-01-31T11:42:47.822Z,96702.00
2024-01-31T11:43:48.265Z,96701.00
2024-01-31T11:44:47.981Z,96702.00
2024-01-31T11:45:48.008Z,96701.00
2024-01-31T11:46:48.073Z,96699.00
2024-01-31T11:47:48.156Z,96699.00
2024-01-31T11:48:48.448Z,96697.00
2024-01-31T11:49:48.193Z,96695.00
2024-01-31T11:50:48.208Z,96693.00
2024-01-31T11:51:48.170Z,96692.00
2024-01-31T11:52:48.168Z,96688.00
2024-01-31T11:53:48.333Z,96688.00
2024-01-31T11:54:48.271Z,96688.00
2024-01-31T11:55:48.782Z,96687.00
2024-01-31T11:56:48.407Z,96687.00
2024-01-31T11:57:48.453Z,96686.00
2024-01-31T11:58:48.795Z,96679.00
2024-01-31T11:59:48.550Z,96676.00
2024-01-31T12:00:48.621Z,96674.00
2024-01-31T12:01:48.647Z,96673.00
2024-01-31T12:02:48.731Z,96671.00
2024-01-31T12:03:48.855Z,96672.00
2024-01-31T12:04:48.793Z,96669.00
2024-01-31T12:05:49.005Z,96668.00
2024-01-31T12:06:49.044Z,96666.00
2024-01-31T12:07:49.330Z,96666.00
2024-01-31T12:08:49.040Z,96664.00
2024-01-31T12:09:48.996Z,96661.00
2024-01-31T12:10:49.991Z,96659.00
2024-01-31T12:11:49.066Z,96655.00
2024-01-31T12:12:49.294Z,96653.00
2024-01-31T12:13:49.800Z,96654.00
2024-01-31T12:14:49.211Z,96651.00
2024-01-31T12:15:49.296Z,96651.00
2024-01-31T12:16:49.312Z,96651.00
2024-01-31T12:17:49.833Z,96648.00
2024-01-31T12:18:49.495Z,96647.00
2024-01-31T12:19:49.519Z,96644.00
2024-01-31T12:20:49.542Z,96639.00
2024-01-31T12:21:49.588Z,96638.00
2024-01-31T12:22:49.812Z,96632.00
2024-01-31T12:23:49.653Z,96628.00
2024-01-31T12:24:49.700Z,96628.00
2024-01-31T12:25:49.721Z,96627.00
2024-01-31T12:26:49.836Z,96625.00
2024-01-31T12:27:49.805Z,96623.00
2024-01-31T12:28:49.841Z,96625.00
2024-01-31T12:29:49.884Z,96624.00
2024-01-31T12:30:50.341Z,96622.00
2024-01-31T12:31:49.946Z,96624.00
2024-01-31T12:32:50.010Z,96624.00
2024-01-31T12:33:50.011Z,96622.00